Terminal Aerodrome Forecast
Issued by NWS

Home | Current Version | Previous Version | Text Only | Print | Product List | Glossary On
Versions: 1 2 3 4 5 6 7 8 9 10 11 12 13 14 15 16 17 18 19 20 21 22 23 24 25 26 27 28 29
000
FTUS43 KDLH 310803 AAB
TAFHIB
TAF AMD
KHIB 310803Z 3108/0106 11011G20KT P6SM BKN090
     FM311000 10011G17KT P6SM -SHRA VCTS SCT015CB OVC060
     FM311500 11011G18KT 6SM -RA BR VCTS SCT008 OVC015CB
     FM312100 12010G15KT 6SM BR VCSH SCT006 BKN015 OVC040
     FM010100 14006KT 5SM BR SCT005 OVC012=

USA.gov is the U.S. government's official web portal to all federal, state and local government web resources and services.